sensor_id;sensor_type;location;lat;lon;timestamp;pressure;altitude;pressure_sealevel;temperature;humidity
24892;BME280;12954;50.688;10.908;2023-04-25T00:01:40;94679.47;;;5.97;56.61
24892;BME280;12954;50.688;10.908;2023-04-25T00:04:08;94761.75;;;6.60;56.50
24892;BME280;12954;50.688;10.908;2023-04-25T00:06:38;94757.47;;;6.59;56.38
24892;BME280;12954;50.688;10.908;2023-04-25T00:09:07;94745.47;;;6.47;56.31
24892;BME280;12954;50.688;10.908;2023-04-25T00:11:36;94763.38;;;6.56;56.35
24892;BME280;12954;50.688;10.908;2023-04-25T00:14:05;94759.63;;;6.57;56.39
24892;BME280;12954;50.688;10.908;2023-04-25T00:16:33;94761.22;;;6.58;56.54
24892;BME280;12954;50.688;10.908;2023-04-25T00:19:02;94759.06;;;6.60;56.55
24892;BME280;12954;50.688;10.908;2023-04-25T00:21:31;94769.22;;;6.63;56.53
24892;BME280;12954;50.688;10.908;2023-04-25T00:24:01;94765.19;;;6.66;56.53
24892;BME280;12954;50.688;10.908;2023-04-25T00:26:29;94767.31;;;6.69;56.43
24892;BME280;12954;50.688;10.908;2023-04-25T00:28:58;94759.84;;;6.71;56.50
24892;BME280;12954;50.688;10.908;2023-04-25T00:31:26;94745.13;;;6.63;56.75
24892;BME280;12954;50.688;10.908;2023-04-25T00:33:56;94762.22;;;6.73;56.67
24892;BME280;12954;50.688;10.908;2023-04-25T00:36:24;94760.34;;;6.73;56.48
24892;BME280;12954;50.688;10.908;2023-04-25T00:38:53;94726.91;;;6.60;56.63
24892;BME280;12954;50.688;10.908;2023-04-25T00:41:24;94744.78;;;6.75;56.71
24892;BME280;12954;50.688;10.908;2023-04-25T00:43:54;94746.66;;;6.75;56.51
24892;BME280;12954;50.688;10.908;2023-04-25T00:46:23;94748.00;;;6.77;56.49
24892;BME280;12954;50.688;10.908;2023-04-25T00:48:51;94741.28;;;6.80;56.62
24892;BME280;12954;50.688;10.908;2023-04-25T00:51:20;94753.34;;;6.82;56.68
24892;BME280;12954;50.688;10.908;2023-04-25T00:53:50;94743.94;;;6.85;56.49
24892;BME280;12954;50.688;10.908;2023-04-25T00:56:19;94747.94;;;6.87;56.68
24892;BME280;12954;50.688;10.908;2023-04-25T00:58:52;94709.47;;;6.63;56.70
24892;BME280;12954;50.688;10.908;2023-04-25T01:01:22;94746.31;;;6.91;56.36
24892;BME280;12954;50.688;10.908;2023-04-25T01:03:50;94748.47;;;6.89;56.32
24892;BME280;12954;50.688;10.908;2023-04-25T01:06:22;94751.22;;;6.79;56.57
24892;BME280;12954;50.688;10.908;2023-04-25T01:08:51;94742.38;;;6.79;56.63
24892;BME280;12954;50.688;10.908;2023-04-25T01:11:19;94738.63;;;6.80;56.75
24892;BME280;12954;50.688;10.908;2023-04-25T01:13:47;94743.69;;;6.81;56.68
24892;BME280;12954;50.688;10.908;2023-04-25T01:16:18;94742.31;;;6.84;56.72
24892;BME280;12954;50.688;10.908;2023-04-25T01:18:47;94747.44;;;6.85;56.50
24892;BME280;12954;50.688;10.908;2023-04-25T01:21:18;94744.97;;;6.94;56.23
24892;BME280;12954;50.688;10.908;2023-04-25T01:23:47;94742.84;;;6.91;56.33
24892;BME280;12954;50.688;10.908;2023-04-25T01:26:17;94736.66;;;6.90;56.41
24892;BME280;12954;50.688;10.908;2023-04-25T01:28:45;94737.47;;;6.91;56.37
24892;BME280;12954;50.688;10.908;2023-04-25T01:31:15;94742.28;;;6.94;56.29
24892;BME280;12954;50.688;10.908;2023-04-25T01:33:44;94736.66;;;6.90;55.94
24892;BME280;12954;50.688;10.908;2023-04-25T01:36:12;94728.97;;;6.79;56.26
24892;BME280;12954;50.688;10.908;2023-04-25T01:38:43;94739.44;;;6.80;56.36
24892;BME280;12954;50.688;10.908;2023-04-25T01:41:13;94742.38;;;6.79;56.20
24892;BME280;12954;50.688;10.908;2023-04-25T01:43:42;94717.75;;;6.66;56.05
24892;BME280;12954;50.688;10.908;2023-04-25T01:46:11;94733.81;;;6.72;56.07
24892;BME280;12954;50.688;10.908;2023-04-25T01:48:39;94736.22;;;6.73;56.13
24892;BME280;12954;50.688;10.908;2023-04-25T01:51:08;94733.81;;;6.77;56.19
24892;BME280;12954;50.688;10.908;2023-04-25T01:53:38;94745.63;;;6.71;56.23
24892;BME280;12954;50.688;10.908;2023-04-25T01:56:08;94735.38;;;6.83;56.37
24892;BME280;12954;50.688;10.908;2023-04-25T01:58:36;94739.66;;;6.84;56.43
24892;BME280;12954;50.688;10.908;2023-04-25T02:01:05;94736.72;;;6.85;56.31
24892;BME280;12954;50.688;10.908;2023-04-25T02:03:34;94729.44;;;6.91;56.13
24892;BME280;12954;50.688;10.908;2023-04-25T02:06:03;94729.47;;;6.86;56.07
24892;BME280;12954;50.688;10.908;2023-04-25T02:08:31;94729.47;;;6.86;56.10
24892;BME280;12954;50.688;10.908;2023-04-25T02:11:00;94729.69;;;6.89;56.17
24892;BME280;12954;50.688;10.908;2023-04-25T02:13:31;94654.16;;;6.38;56.03
24892;BME280;12954;50.688;10.908;2023-04-25T02:15:59;94725.13;;;6.90;56.28
24892;BME280;12954;50.688;10.908;2023-04-25T02:18:28;94737.72;;;6.89;56.09
24892;BME280;12954;50.688;10.908;2023-04-25T02:20:58;94724.88;;;6.86;56.25
24892;BME280;12954;50.688;10.908;2023-04-25T02:23:26;94464.66;;;5.22;56.31
24892;BME280;12954;50.688;10.908;2023-04-25T02:25:56;94729.47;;;6.86;55.96
24892;BME280;12954;50.688;10.908;2023-04-25T02:28:24;94730.50;;;6.90;56.42
24892;BME280;12954;50.688;10.908;2023-04-25T02:30:55;94732.69;;;6.83;56.43
24892;BME280;12954;50.688;10.908;2023-04-25T02:33:23;94726.25;;;6.84;56.29
24892;BME280;12954;50.688;10.908;2023-04-25T02:35:52;94732.69;;;6.83;56.28
24892;BME280;12954;50.688;10.908;2023-04-25T02:38:21;94642.13;;;6.31;55.57
24892;BME280;12954;50.688;10.908;2023-04-25T02:40:49;94730.03;;;6.78;55.41
24892;BME280;12954;50.688;10.908;2023-04-25T02:43:18;94723.63;;;6.68;55.58
24892;BME280;12954;50.688;10.908;2023-04-25T02:45:49;94692.47;;;6.39;55.78
24892;BME280;12954;50.688;10.908;2023-04-25T02:48:19;94719.94;;;6.64;55.74
24892;BME280;12954;50.688;10.908;2023-04-25T02:50:47;94712.41;;;6.66;55.61
24892;BME280;12954;50.688;10.908;2023-04-25T02:53:15;94708.16;;;6.65;55.15
24892;BME280;12954;50.688;10.908;2023-04-25T02:55:44;94688.66;;;6.50;55.47
24892;BME280;12954;50.688;10.908;2023-04-25T02:58:12;94711.91;;;6.64;55.12
24892;BME280;12954;50.688;10.908;2023-04-25T03:00:42;94701.50;;;6.53;55.13
24892;BME280;12954;50.688;10.908;2023-04-25T03:03:11;94711.41;;;6.52;55.23
24892;BME280;12954;50.688;10.908;2023-04-25T03:05:41;94705.53;;;6.50;55.40
24892;BME280;12954;50.688;10.908;2023-04-25T03:08:09;94707.66;;;6.48;55.18
24892;BME280;12954;50.688;10.908;2023-04-25T03:10:38;94674.56;;;6.29;55.01
24892;BME280;12954;50.688;10.908;2023-04-25T03:13:07;94699.97;;;6.42;54.32
24892;BME280;12954;50.688;10.908;2023-04-25T03:15:35;94718.94;;;6.45;54.19
24892;BME280;12954;50.688;10.908;2023-04-25T03:18:04;94709.34;;;6.34;54.78
24892;BME280;12954;50.688;10.908;2023-04-25T03:20:32;94714.69;;;6.34;54.22
24892;BME280;12954;50.688;10.908;2023-04-25T03:23:02;94719.84;;;6.21;54.54
24892;BME280;12954;50.688;10.908;2023-04-25T03:25:31;94720.91;;;6.20;54.65
24892;BME280;12954;50.688;10.908;2023-04-25T03:27:59;94716.63;;;6.19;54.39
24892;BME280;12954;50.688;10.908;2023-04-25T03:30:27;94655.44;;;5.82;54.36
24892;BME280;12954;50.688;10.908;2023-04-25T03:32:56;94720.88;;;6.25;53.91
24892;BME280;12954;50.688;10.908;2023-04-25T03:35:24;94744.22;;;6.14;53.98
24892;BME280;12954;50.688;10.908;2023-04-25T03:37:53;94718.50;;;6.08;54.03
24892;BME280;12954;50.688;10.908;2023-04-25T03:40:23;94720.69;;;6.06;53.88
24892;BME280;12954;50.688;10.908;2023-04-25T03:42:52;94721.19;;;6.08;54.16
24892;BME280;12954;50.688;10.908;2023-04-25T03:45:20;94731.91;;;6.08;54.12
24892;BME280;12954;50.688;10.908;2023-04-25T03:47:49;94695.00;;;5.90;54.10
24892;BME280;12954;50.688;10.908;2023-04-25T03:50:18;94710.78;;;6.06;53.76
24892;BME280;12954;50.688;10.908;2023-04-25T03:52:46;94723.31;;;6.11;53.75
24892;BME280;12954;50.688;10.908;2023-04-25T03:55:14;94722.81;;;6.09;53.94
24892;BME280;12954;50.688;10.908;2023-04-25T03:57:44;94724.38;;;6.10;53.77
24892;BME280;12954;50.688;10.908;2023-04-25T04:00:14;94727.38;;;6.13;53.94
24892;BME280;12954;50.688;10.908;2023-04-25T04:02:42;94728.97;;;6.15;53.54
24892;BME280;12954;50.688;10.908;2023-04-25T04:05:11;94691.81;;;5.88;53.71
24892;BME280;12954;50.688;10.908;2023-04-25T04:07:40;94725.75;;;6.12;53.73
24892;BME280;12954;50.688;10.908;2023-04-25T04:10:10;94683.25;;;5.86;53.81
24892;BME280;12954;50.688;10.908;2023-04-25T04:12:39;94726.28;;;6.15;53.74
24892;BME280;12954;50.688;10.908;2023-04-25T04:15:09;94719.06;;;6.15;53.60
24892;BME280;12954;50.688;10.908;2023-04-25T04:17:38;94699.53;;;5.99;53.61
24892;BME280;12954;50.688;10.908;2023-04-25T04:20:08;94722.25;;;6.12;53.59
24892;BME280;12954;50.688;10.908;2023-04-25T04:22:36;94737.28;;;6.13;53.73
24892;BME280;12954;50.688;10.908;2023-04-25T04:25:05;94741.31;;;6.16;53.84
24892;BME280;12954;50.688;10.908;2023-04-25T04:27:34;94739.69;;;6.15;54.09
24892;BME280;12954;50.688;10.908;2023-04-25T04:30:03;94734.34;;;6.15;53.96
24892;BME280;12954;50.688;10.908;2023-04-25T04:32:33;94735.41;;;6.13;53.89
24892;BME280;12954;50.688;10.908;2023-04-25T04:35:05;94743.13;;;6.10;53.95
24892;BME280;12954;50.688;10.908;2023-04-25T04:37:35;94744.22;;;6.09;53.88
24892;BME280;12954;50.688;10.908;2023-04-25T04:40:05;94741.25;;;6.10;53.88
24892;BME280;12954;50.688;10.908;2023-04-25T04:42:34;94707.34;;;5.81;53.50
24892;BME280;12954;50.688;10.908;2023-04-25T04:45:03;94747.47;;;6.01;53.56
24892;BME280;12954;50.688;10.908;2023-04-25T04:47:33;94751.75;;;5.97;53.43
24892;BME280;12954;50.688;10.908;2023-04-25T04:50:04;94718.34;;;5.69;53.23
24892;BME280;12954;50.688;10.908;2023-04-25T04:52:34;94762.19;;;5.93;53.46
24892;BME280;12954;50.688;10.908;2023-04-25T04:55:03;94750.16;;;5.91;53.31
24892;BME280;12954;50.688;10.908;2023-04-25T04:57:32;94756.03;;;5.88;53.49
24892;BME280;12954;50.688;10.908;2023-04-25T05:00:01;94753.88;;;5.90;53.00
24892;BME280;12954;50.688;10.908;2023-04-25T05:02:29;94753.63;;;5.81;52.97
24892;BME280;12954;50.688;10.908;2023-04-25T05:04:59;94756.59;;;5.85;52.91
24892;BME280;12954;50.688;10.908;2023-04-25T05:07:28;94757.94;;;5.82;52.84
24892;BME280;12954;50.688;10.908;2023-04-25T05:09:56;94705.78;;;5.49;52.83
24892;BME280;12954;50.688;10.908;2023-04-25T05:12:25;94761.94;;;5.75;52.36
24892;BME280;12954;50.688;10.908;2023-04-25T05:14:53;94764.31;;;5.86;51.73
24892;BME280;12954;50.688;10.908;2023-04-25T05:17:21;94763.03;;;5.69;51.85
24892;BME280;12954;50.688;10.908;2023-04-25T05:19:50;94763.56;;;5.66;51.80
24892;BME280;12954;50.688;10.908;2023-04-25T05:22:19;94759.03;;;5.56;51.92
24892;BME280;12954;50.688;10.908;2023-04-25T05:24:48;94764.88;;;5.63;52.27
24892;BME280;12954;50.688;10.908;2023-04-25T05:27:21;94736.53;;;5.52;52.54
24892;BME280;12954;50.688;10.908;2023-04-25T05:29:49;94767.81;;;5.72;52.36
24892;BME280;12954;50.688;10.908;2023-04-25T05:32:18;94749.38;;;5.60;52.03
24892;BME280;12954;50.688;10.908;2023-04-25T05:34:47;94727.47;;;5.48;52.02
24892;BME280;12954;50.688;10.908;2023-04-25T05:37:15;94774.78;;;5.83;52.08
24892;BME280;12954;50.688;10.908;2023-04-25T05:39:45;94749.66;;;5.64;51.72
24892;BME280;12954;50.688;10.908;2023-04-25T05:42:13;94784.97;;;5.86;52.02
24892;BME280;12954;50.688;10.908;2023-04-25T05:44:42;94791.66;;;5.83;51.83
24892;BME280;12954;50.688;10.908;2023-04-25T05:47:10;94789.25;;;5.92;51.70
24892;BME280;12954;50.688;10.908;2023-04-25T05:49:38;94789.25;;;5.92;51.81
24892;BME280;12954;50.688;10.908;2023-04-25T05:52:07;94792.44;;;5.89;51.60
24892;BME280;12954;50.688;10.908;2023-04-25T05:54:35;94788.19;;;5.83;51.56
24892;BME280;12954;50.688;10.908;2023-04-25T05:57:05;94785.50;;;5.73;51.68
24892;BME280;12954;50.688;10.908;2023-04-25T05:59:34;94796.75;;;5.80;51.58
24892;BME280;12954;50.688;10.908;2023-04-25T06:02:02;94801.00;;;5.76;51.71
24892;BME280;12954;50.688;10.908;2023-04-25T06:04:31;94782.28;;;5.61;51.62
24892;BME280;12954;50.688;10.908;2023-04-25T06:07:00;94818.13;;;5.70;51.92
24892;BME280;12954;50.688;10.908;2023-04-25T06:09:28;94813.06;;;5.73;51.73
24892;BME280;12954;50.688;10.908;2023-04-25T06:11:56;94802.63;;;5.67;52.07
24892;BME280;12954;50.688;10.908;2023-04-25T06:14:26;94806.38;;;5.76;51.96
24892;BME280;12954;50.688;10.908;2023-04-25T06:16:55;94807.97;;;5.77;51.88
24892;BME280;12954;50.688;10.908;2023-04-25T06:19:23;94806.88;;;5.78;51.88
24892;BME280;12954;50.688;10.908;2023-04-25T06:21:52;94812.25;;;5.83;51.89
24892;BME280;12954;50.688;10.908;2023-04-25T06:24:20;94817.06;;;5.86;51.98
24892;BME280;12954;50.688;10.908;2023-04-25T06:26:49;94816.53;;;5.94;51.83
24892;BME280;12954;50.688;10.908;2023-04-25T06:29:17;94786.31;;;5.73;51.31
24892;BME280;12954;50.688;10.908;2023-04-25T06:31:47;94817.06;;;5.96;51.67
24892;BME280;12954;50.688;10.908;2023-04-25T06:34:15;94825.88;;;6.01;51.35
24892;BME280;12954;50.688;10.908;2023-04-25T06:36:44;94820.28;;;6.03;51.32
24892;BME280;12954;50.688;10.908;2023-04-25T06:39:13;94822.13;;;6.02;51.27
24892;BME280;12954;50.688;10.908;2023-04-25T06:41:41;94814.94;;;5.98;51.44
24892;BME280;12954;50.688;10.908;2023-04-25T06:44:10;94800.47;;;5.89;51.42
24892;BME280;12954;50.688;10.908;2023-04-25T06:46:39;94827.47;;;6.07;51.32
24892;BME280;12954;50.688;10.908;2023-04-25T06:49:09;94828.31;;;6.13;51.13
24892;BME280;12954;50.688;10.908;2023-04-25T06:51:37;94835.28;;;6.14;51.20
24892;BME280;12954;50.688;10.908;2023-04-25T06:54:07;94832.59;;;6.19;50.86
24892;BME280;12954;50.688;10.908;2023-04-25T06:56:35;94833.38;;;6.30;50.38
24892;BME280;12954;50.688;10.908;2023-04-25T06:59:04;94835.25;;;6.04;50.50
24892;BME280;12954;50.688;10.908;2023-04-25T07:01:32;94835.53;;;5.92;50.87
24892;BME280;12954;50.688;10.908;2023-04-25T07:04:00;94830.44;;;5.91;51.11
24892;BME280;12954;50.688;10.908;2023-04-25T07:06:31;94838.19;;;6.02;51.11
24892;BME280;12954;50.688;10.908;2023-04-25T07:08:59;94836.59;;;6.01;51.11
24892;BME280;12954;50.688;10.908;2023-04-25T07:11:28;94837.41;;;6.12;51.17
24892;BME280;12954;50.688;10.908;2023-04-25T07:13:57;94833.13;;;6.16;51.00
24892;BME280;12954;50.688;10.908;2023-04-25T07:16:25;94837.41;;;6.12;51.22
24892;BME280;12954;50.688;10.908;2023-04-25T07:18:55;94840.91;;;6.18;51.36
24892;BME280;12954;50.688;10.908;2023-04-25T07:21:23;94836.88;;;6.15;51.47
24892;BME280;12954;50.688;10.908;2023-04-25T07:23:53;94828.31;;;6.13;51.33
24892;BME280;12954;50.688;10.908;2023-04-25T07:26:22;94843.84;;;6.21;51.43
24892;BME280;12954;50.688;10.908;2023-04-25T07:28:50;94837.41;;;6.27;51.20
24892;BME280;12954;50.688;10.908;2023-04-25T07:31:18;94848.66;;;6.19;51.37
24892;BME280;12954;50.688;10.908;2023-04-25T07:33:47;94844.06;;;6.45;50.42
24892;BME280;12954;50.688;10.908;2023-04-25T07:36:16;94858.00;;;6.22;50.55
24892;BME280;12954;50.688;10.908;2023-04-25T07:38:44;94826.19;;;5.80;51.12
24892;BME280;12954;50.688;10.908;2023-04-25T07:41:14;94861.50;;;5.97;51.38
24892;BME280;12954;50.688;10.908;2023-04-25T07:43:43;94854.25;;;6.02;51.38
24892;BME280;12954;50.688;10.908;2023-04-25T07:46:11;94860.69;;;6.06;51.33
24892;BME280;12954;50.688;10.908;2023-04-25T07:48:40;94838.50;;;6.01;51.27
24892;BME280;12954;50.688;10.908;2023-04-25T07:51:09;94841.94;;;6.01;51.45
24892;BME280;12954;50.688;10.908;2023-04-25T07:53:37;94863.09;;;6.08;51.61
24892;BME280;12954;50.688;10.908;2023-04-25T07:56:06;94867.91;;;6.11;51.93
24892;BME280;12954;50.688;10.908;2023-04-25T07:58:37;94872.22;;;6.27;51.33
24892;BME280;12954;50.688;10.908;2023-04-25T08:01:05;94887.47;;;6.06;51.55
24892;BME280;12954;50.688;10.908;2023-04-25T08:03:34;94880.50;;;6.05;51.62
24892;BME280;12954;50.688;10.908;2023-04-25T08:06:03;94878.66;;;6.01;51.78
24892;BME280;12954;50.688;10.908;2023-04-25T08:08:34;94885.31;;;5.98;51.93
24892;BME280;12954;50.688;10.908;2023-04-25T08:11:03;94886.94;;;5.99;51.89
24892;BME280;12954;50.688;10.908;2023-04-25T08:13:31;94891.47;;;5.94;51.98
24892;BME280;12954;50.688;10.908;2023-04-25T08:16:01;94895.25;;;5.98;52.20
24892;BME280;12954;50.688;10.908;2023-04-25T08:18:30;94822.66;;;5.54;52.21
24892;BME280;12954;50.688;10.908;2023-04-25T08:20:58;94901.13;;;6.00;52.24
24892;BME280;12954;50.688;10.908;2023-04-25T08:23:27;94911.00;;;6.04;52.56
24892;BME280;12954;50.688;10.908;2023-04-25T08:25:55;94907.28;;;6.05;52.73
24892;BME280;12954;50.688;10.908;2023-04-25T08:28:24;94916.91;;;6.11;52.60
24892;BME280;12954;50.688;10.908;2023-04-25T08:30:52;94922.56;;;6.15;52.46
24892;BME280;12954;50.688;10.908;2023-04-25T08:33:24;94918.53;;;6.12;52.73
24892;BME280;12954;50.688;10.908;2023-04-25T08:35:53;94924.16;;;6.16;52.48
24892;BME280;12954;50.688;10.908;2023-04-25T08:38:21;94907.81;;;6.07;52.67
24892;BME280;12954;50.688;10.908;2023-04-25T08:40:51;94931.41;;;6.26;52.27
24892;BME280;12954;50.688;10.908;2023-04-25T08:43:20;94899.22;;;5.90;52.50
24892;BME280;12954;50.688;10.908;2023-04-25T08:45:48;94879.16;;;5.63;52.65
24892;BME280;12954;50.688;10.908;2023-04-25T08:48:17;94937.25;;;5.97;52.93
24892;BME280;12954;50.688;10.908;2023-04-25T08:50:54;94930.56;;;6.00;52.85
24892;BME280;12954;50.688;10.908;2023-04-25T08:53:26;94946.63;;;6.00;53.08
24892;BME280;12954;50.688;10.908;2023-04-25T08:55:59;94949.84;;;6.02;52.86
24892;BME280;12954;50.688;10.908;2023-04-25T08:58:28;94951.72;;;5.96;52.94
24892;BME280;12954;50.688;10.908;2023-04-25T09:00:57;94957.34;;;6.00;53.40
24892;BME280;12954;50.688;10.908;2023-04-25T09:03:27;94964.31;;;6.01;53.35
24892;BME280;12954;50.688;10.908;2023-04-25T09:05:58;94959.50;;;5.98;53.20
24892;BME280;12954;50.688;10.908;2023-04-25T09:08:26;94963.50;;;6.00;53.50
24892;BME280;12954;50.688;10.908;2023-04-25T09:10:55;94924.63;;;5.73;53.48
24892;BME280;12954;50.688;10.908;2023-04-25T09:13:27;94972.31;;;5.96;53.79
24892;BME280;12954;50.688;10.908;2023-04-25T09:15:56;94965.38;;;6.00;53.84
24892;BME280;12954;50.688;10.908;2023-04-25T09:18:27;94981.44;;;6.10;53.70
24892;BME280;12954;50.688;10.908;2023-04-25T09:21:05;94951.94;;;5.75;53.88
24892;BME280;12954;50.688;10.908;2023-04-25T09:23:41;94969.59;;;5.81;53.85
24892;BME280;12954;50.688;10.908;2023-04-25T09:26:10;94986.78;;;5.95;53.96
24892;BME280;12954;50.688;10.908;2023-04-25T09:28:41;94998.03;;;5.92;54.31
24892;BME280;12954;50.688;10.908;2023-04-25T09:31:10;95003.09;;;5.93;54.35
24892;BME280;12954;50.688;10.908;2023-04-25T09:33:40;94975.47;;;5.63;54.77
24892;BME280;12954;50.688;10.908;2023-04-25T09:36:11;94937.13;;;5.37;54.94
24892;BME280;12954;50.688;10.908;2023-04-25T09:38:41;95017.25;;;5.74;55.68
24892;BME280;12954;50.688;10.908;2023-04-25T09:41:10;95024.44;;;5.68;56.13
24892;BME280;12954;50.688;10.908;2023-04-25T09:43:39;94967.94;;;5.49;56.54
24892;BME280;12954;50.688;10.908;2023-04-25T09:46:08;94998.75;;;5.62;56.97
24892;BME280;12954;50.688;10.908;2023-04-25T09:48:38;95017.25;;;5.79;57.09
24892;BME280;12954;50.688;10.908;2023-04-25T09:51:08;95019.09;;;5.73;57.44
24892;BME280;12954;50.688;10.908;2023-04-25T09:53:41;94999.56;;;5.63;57.52
24892;BME280;12954;50.688;10.908;2023-04-25T09:56:11;95031.97;;;5.86;57.58
24892;BME280;12954;50.688;10.908;2023-04-25T09:58:40;95027.41;;;5.77;57.64
24892;BME280;12954;50.688;10.908;2023-04-25T10:01:10;95038.06;;;5.62;57.98
24892;BME280;12954;50.688;10.908;2023-04-25T10:03:40;95035.09;;;5.58;58.23
24892;BME280;12954;50.688;10.908;2023-04-25T10:06:12;95026.25;;;5.52;58.12
24892;BME280;12954;50.688;10.908;2023-04-25T10:08:44;95031.09;;;5.55;58.29
24892;BME280;12954;50.688;10.908;2023-04-25T10:11:14;95043.44;;;5.67;58.46
24892;BME280;12954;50.688;10.908;2023-04-25T10:13:47;95035.97;;;5.79;58.52
24892;BME280;12954;50.688;10.908;2023-04-25T10:16:17;95038.41;;;5.85;58.75
24892;BME280;12954;50.688;10.908;2023-04-25T10:18:46;95016.72;;;5.77;58.64
24892;BME280;12954;50.688;10.908;2023-04-25T10:21:16;95018.31;;;5.78;58.60
24892;BME280;12954;50.688;10.908;2023-04-25T10:23:46;95013.47;;;5.75;58.78
24892;BME280;12954;50.688;10.908;2023-04-25T10:26:15;95041.94;;;6.01;58.80
24892;BME280;12954;50.688;10.908;2023-04-25T10:28:57;95044.69;;;6.21;58.92
24892;BME280;12954;50.688;10.908;2023-04-25T10:31:26;95038.81;;;6.29;58.56
24892;BME280;12954;50.688;10.908;2023-04-25T10:33:55;95031.31;;;6.41;58.14
24892;BME280;12954;50.688;10.908;2023-04-25T10:36:24;95040.97;;;6.42;58.08
24892;BME280;12954;50.688;10.908;2023-04-25T10:38:55;95004.00;;;6.29;57.66
24892;BME280;12954;50.688;10.908;2023-04-25T10:41:25;95051.13;;;6.45;58.01
24892;BME280;12954;50.688;10.908;2023-04-25T10:43:59;95049.00;;;6.42;57.63
24892;BME280;12954;50.688;10.908;2023-04-25T10:46:29;95056.50;;;6.40;57.75
24892;BME280;12954;50.688;10.908;2023-04-25T10:48:59;95058.66;;;6.33;57.82
24892;BME280;12954;50.688;10.908;2023-04-25T10:51:29;95030.22;;;6.22;57.17
24892;BME280;12954;50.688;10.908;2023-04-25T10:54:22;95018.97;;;6.25;56.68
24892;BME280;12954;50.688;10.908;2023-04-25T10:56:52;95052.75;;;6.46;56.58
24892;BME280;12954;50.688;10.908;2023-04-25T10:59:24;95053.03;;;6.55;56.45
24892;BME280;12954;50.688;10.908;2023-04-25T11:01:53;95044.47;;;6.58;56.24
24892;BME280;12954;50.688;10.908;2023-04-25T11:04:24;95042.06;;;6.56;56.26
24892;BME280;12954;50.688;10.908;2023-04-25T11:07:02;95046.59;;;6.76;56.41
24892;BME280;12954;50.688;10.908;2023-04-25T11:09:37;95042.84;;;7.02;55.88
24892;BME280;12954;50.688;10.908;2023-04-25T11:12:08;95042.81;;;7.17;55.31
24892;BME280;12954;50.688;10.908;2023-04-25T11:14:39;95040.66;;;7.19;54.78
24892;BME280;12954;50.688;10.908;2023-04-25T11:17:07;95039.31;;;7.27;54.60
24892;BME280;12954;50.688;10.908;2023-04-25T11:19:37;95040.34;;;7.36;54.57
24892;BME280;12954;50.688;10.908;2023-04-25T11:22:05;95024.22;;;7.46;54.06
24892;BME280;12954;50.688;10.908;2023-04-25T11:24:36;95025.22;;;7.70;53.89
24892;BME280;12954;50.688;10.908;2023-04-25T11:27:05;95027.00;;;7.90;53.57
24892;BME280;12954;50.688;10.908;2023-04-25T11:29:34;95020.84;;;7.95;52.26
24892;BME280;12954;50.688;10.908;2023-04-25T11:32:03;95031.09;;;7.83;52.21
24892;BME280;12954;50.688;10.908;2023-04-25T11:34:32;95038.06;;;7.78;52.38
24892;BME280;12954;50.688;10.908;2023-04-25T11:37:02;95034.63;;;7.68;51.74
24892;BME280;12954;50.688;10.908;2023-04-25T11:39:30;95032.72;;;7.63;51.87
24892;BME280;12954;50.688;10.908;2023-04-25T11:42:00;95034.41;;;7.49;51.91
24892;BME280;12954;50.688;10.908;2023-04-25T11:44:39;95038.19;;;7.43;52.33
24892;BME280;12954;50.688;10.908;2023-04-25T11:47:08;95044.09;;;7.40;52.32
24892;BME280;12954;50.688;10.908;2023-04-25T11:49:37;95055.88;;;7.39;52.32
24892;BME280;12954;50.688;10.908;2023-04-25T11:52:06;94938.63;;;6.65;51.84
24892;BME280;12954;50.688;10.908;2023-04-25T11:54:36;95037.72;;;7.01;52.15
24892;BME280;12954;50.688;10.908;2023-04-25T11:57:06;95074.72;;;7.14;52.57
24892;BME280;12954;50.688;10.908;2023-04-25T11:59:35;95079.00;;;7.10;52.55
24892;BME280;12954;50.688;10.908;2023-04-25T12:02:03;95090.81;;;6.99;53.10
24892;BME280;12954;50.688;10.908;2023-04-25T12:04:33;95088.69;;;6.96;53.22
24892;BME280;12954;50.688;10.908;2023-04-25T12:07:03;95092.72;;;6.88;53.35
24892;BME280;12954;50.688;10.908;2023-04-25T12:09:33;95093.25;;;6.80;53.30
24892;BME280;12954;50.688;10.908;2023-04-25T12:12:01;95092.44;;;6.75;53.30
24892;BME280;12954;50.688;10.908;2023-04-25T12:14:33;95084.66;;;6.73;53.56
24892;BME280;12954;50.688;10.908;2023-04-25T12:17:03;95089.75;;;6.69;53.83
24892;BME280;12954;50.688;10.908;2023-04-25T12:19:36;95087.34;;;6.68;53.83
24892;BME280;12954;50.688;10.908;2023-04-25T12:22:19;95096.19;;;6.63;53.65
24892;BME280;12954;50.688;10.908;2023-04-25T12:24:48;95105.28;;;6.52;53.94
24892;BME280;12954;50.688;10.908;2023-04-25T12:27:17;95083.84;;;6.52;53.94
24892;BME280;12954;50.688;10.908;2023-04-25T12:29:55;95105.31;;;6.73;54.02
24892;BME280;12954;50.688;10.908;2023-04-25T12:32:24;95108.50;;;6.75;53.91
24892;BME280;12954;50.688;10.908;2023-04-25T12:34:53;95102.63;;;6.78;54.10
24892;BME280;12954;50.688;10.908;2023-04-25T12:37:21;95098.34;;;6.92;53.82
24892;BME280;12954;50.688;10.908;2023-04-25T12:39:50;95098.88;;;6.99;53.27
24892;BME280;12954;50.688;10.908;2023-04-25T12:42:18;95096.19;;;7.04;53.36
24892;BME280;12954;50.688;10.908;2023-04-25T12:44:47;95108.53;;;7.15;53.04
24892;BME280;12954;50.688;10.908;2023-04-25T12:47:16;95033.47;;;6.85;53.11
24892;BME280;12954;50.688;10.908;2023-04-25T12:49:45;95097.22;;;7.28;52.89
24892;BME280;12954;50.688;10.908;2023-04-25T12:52:13;95023.25;;;6.87;52.30
24892;BME280;12954;50.688;10.908;2023-04-25T12:54:42;95083.28;;;7.26;52.26
24892;BME280;12954;50.688;10.908;2023-04-25T12:57:10;95101.50;;;7.44;52.15
24892;BME280;12954;50.688;10.908;2023-04-25T12:59:39;95100.69;;;7.44;52.06
24892;BME280;12954;50.688;10.908;2023-04-25T13:02:07;95111.97;;;7.46;51.47
24892;BME280;12954;50.688;10.908;2023-04-25T13:04:37;95104.72;;;7.36;51.25
24892;BME280;12954;50.688;10.908;2023-04-25T13:07:06;95110.91;;;7.32;51.23
24892;BME280;12954;50.688;10.908;2023-04-25T13:09:34;95123.78;;;7.24;50.88
24892;BME280;12954;50.688;10.908;2023-04-25T13:12:03;95126.75;;;7.13;49.94